Terminal Aerodrome Forecast
Issued by NWS

Home | Current Version | Previous Version | Text Only | Print | Product List | Glossary On
Versions: 1 2 3 4 5 6 7 8 9 10 11 12 13 14 15
664
FTUS43 KILX 272340
TAFBMI
TAF
KBMI 272340Z 2800/2824 18010KT P6SM SCT035
     FM280600 16014KT 4SM -SHRA BR VCTS SCT006 OVC015CB
     FM281200 19012G22KT P6SM OVC015=

USA.gov is the U.S. government's official web portal to all federal, state and local government web resources and services.